createdAt,value
2019-04-06T00:00:15.959Z,28.05
2019-04-06T00:02:45.512Z,28.12
2019-04-06T00:05:15.821Z,31.90
2019-04-06T00:07:45.442Z,28.65
2019-04-06T00:10:16.857Z,29.15
2019-04-06T00:12:47.899Z,28.98
2019-04-06T00:15:19.075Z,29.32
2019-04-06T00:17:48.500Z,29.40
2019-04-06T00:20:19.063Z,29.67
2019-04-06T00:22:48.919Z,28.57
2019-04-06T00:25:18.597Z,31.10
2019-04-06T00:27:48.238Z,29.60
2019-04-06T00:30:18.533Z,31.65
2019-04-06T00:32:49.821Z,31.25
2019-04-06T00:35:19.308Z,29.02
2019-04-06T00:37:48.914Z,29.90
2019-04-06T00:40:18.538Z,28.95
2019-04-06T00:42:48.381Z,31.07
2019-04-06T00:45:19.577Z,30.68
2019-04-06T00:47:50.641Z,30.45
2019-04-06T00:50:21.692Z,30.12
2019-04-06T00:52:51.164Z,29.72
2019-04-06T00:55:20.841Z,30.75
2019-04-06T00:57:50.663Z,29.10
2019-04-06T01:00:20.117Z,30.95
2019-04-06T01:02:49.588Z,30.88
2019-04-06T01:05:21.065Z,30.08
2019-04-06T01:07:51.070Z,30.05
2019-04-06T01:10:20.733Z,30.48
2019-04-06T01:12:51.780Z,28.02
2019-04-06T01:15:25.636Z,28.77
2019-04-06T01:17:56.262Z,29.40
2019-04-06T01:20:28.858Z,29.10
2019-04-06T01:22:58.832Z,29.95
2019-04-06T01:25:28.337Z,29.50
2019-04-06T01:27:59.493Z,29.98
2019-04-06T01:30:29.016Z,30.25
2019-04-06T01:32:58.488Z,32.75
2019-04-06T01:35:27.922Z,31.15
2019-04-06T01:37:57.394Z,31.87
2019-04-06T01:40:26.899Z,31.27
2019-04-06T01:42:56.402Z,28.17
2019-04-06T01:45:26.013Z,31.02
2019-04-06T01:47:55.588Z,32.25
2019-04-06T01:50:26.463Z,31.65
2019-04-06T01:52:55.973Z,28.25
2019-04-06T01:55:25.543Z,29.95
2019-04-06T01:57:56.807Z,30.75
2019-04-06T02:00:26.786Z,31.82
2019-04-06T02:02:59.667Z,29.18
2019-04-06T02:05:29.147Z,28.05
2019-04-06T02:08:00.006Z,28.42
2019-04-06T02:10:30.272Z,28.80
2019-04-06T02:13:01.822Z,31.15
2019-04-06T02:15:31.327Z,29.05
2019-04-06T02:18:05.898Z,29.50
2019-04-06T02:20:33.916Z,29.00
2019-04-06T02:23:03.523Z,28.35
2019-04-06T02:25:40.017Z,27.05
2019-04-06T02:28:11.030Z,27.40
2019-04-06T02:30:42.177Z,28.07
2019-04-06T02:33:29.408Z,26.50
2019-04-06T02:36:06.587Z,26.15
2019-04-06T02:38:37.660Z,26.95
2019-04-06T02:41:09.988Z,28.30
2019-04-06T02:43:40.536Z,29.77
2019-04-06T02:46:10.140Z,30.10
2019-04-06T02:48:39.582Z,30.23
2019-04-06T02:51:10.481Z,27.77
2019-04-06T02:53:41.519Z,27.93
2019-04-06T02:56:11.012Z,29.12
2019-04-06T02:58:40.631Z,28.32
2019-04-06T03:01:10.170Z,29.52
2019-04-06T03:03:39.631Z,29.25
2019-04-06T03:06:10.786Z,27.55
2019-04-06T03:08:40.312Z,29.12
2019-04-06T03:11:10.073Z,26.62
2019-04-06T03:13:39.598Z,27.15
2019-04-06T03:16:08.987Z,28.35
2019-04-06T03:18:38.864Z,27.32
2019-04-06T03:21:08.323Z,26.50
2019-04-06T03:23:50.600Z,27.73
2019-04-06T03:26:12.015Z,28.00
2019-04-06T03:28:41.444Z,27.85
2019-04-06T03:31:11.004Z,29.92
2019-04-06T03:33:41.126Z,28.47
2019-04-06T03:36:10.729Z,28.17
2019-04-06T03:38:40.393Z,28.52
2019-04-06T03:41:09.925Z,28.32
2019-04-06T03:43:40.936Z,27.10
2019-04-06T03:46:10.513Z,26.90
2019-04-06T03:48:41.664Z,28.25
2019-04-06T03:51:11.058Z,28.55
2019-04-06T03:53:40.472Z,26.42
2019-04-06T03:56:09.901Z,29.05
2019-04-06T03:58:44.416Z,28.47
2019-04-06T04:01:13.888Z,29.63
2019-04-06T04:03:43.668Z,29.10
2019-04-06T04:06:13.117Z,29.25
2019-04-06T04:08:42.605Z,29.40
2019-04-06T04:11:11.927Z,31.50
2019-04-06T04:13:41.515Z,29.50
2019-04-06T04:16:10.959Z,30.82
2019-04-06T04:18:40.338Z,28.95
2019-04-06T04:21:09.721Z,28.83
2019-04-06T04:23:39.118Z,28.73
2019-04-06T04:26:08.860Z,29.12
2019-04-06T04:28:38.889Z,29.40
2019-04-06T04:31:10.005Z,28.95
2019-04-06T04:33:42.766Z,30.17
2019-04-06T04:36:12.245Z,28.07
2019-04-06T04:38:41.592Z,28.70
2019-04-06T04:41:11.045Z,29.00
2019-04-06T04:43:50.408Z,30.77
2019-04-06T04:46:16.173Z,29.67
2019-04-06T04:48:45.566Z,29.90
2019-04-06T04:51:15.048Z,27.75
2019-04-06T04:53:46.822Z,26.70
2019-04-06T04:56:17.559Z,28.27
2019-04-06T04:58:47.049Z,31.27
2019-04-06T05:01:18.990Z,30.30
2019-04-06T05:03:48.325Z,32.35
2019-04-06T05:06:19.451Z,30.00
2019-04-06T05:08:51.678Z,31.17
2019-04-06T05:11:21.045Z,30.72
2019-04-06T05:14:11.902Z,28.52
2019-04-06T05:16:41.818Z,32.73
2019-04-06T05:19:12.985Z,28.57
2019-04-06T05:21:42.875Z,30.02
2019-04-06T05:24:14.837Z,29.27
2019-04-06T05:26:44.256Z,28.38
2019-04-06T05:29:14.075Z,29.98
2019-04-06T05:31:43.807Z,30.90
2019-04-06T05:34:13.366Z,31.65
2019-04-06T05:36:45.888Z,30.27
2019-04-06T05:39:15.251Z,31.23
2019-04-06T05:41:46.258Z,32.03
2019-04-06T05:44:15.683Z,31.35
2019-04-06T05:46:48.646Z,34.27
2019-04-06T05:49:18.098Z,31.82
2019-04-06T05:51:47.588Z,30.52
2019-04-06T05:54:16.977Z,34.95
2019-04-06T05:56:48.017Z,34.33
2019-04-06T05:59:17.358Z,31.25
2019-04-06T06:01:48.496Z,34.67
2019-04-06T06:04:17.967Z,31.37
2019-04-06T06:06:48.287Z,31.70
2019-04-06T06:09:18.395Z,30.95
2019-04-06T06:11:47.792Z,33.58
2019-04-06T06:14:17.242Z,33.60
2019-04-06T06:16:46.786Z,33.38
2019-04-06T06:19:16.553Z,31.55
2019-04-06T06:21:46.058Z,32.53
2019-04-06T06:24:17.099Z,33.88
2019-04-06T06:26:46.640Z,31.42
2019-04-06T06:29:16.345Z,31.02
2019-04-06T06:31:45.925Z,32.45
2019-04-06T06:34:15.309Z,31.12
2019-04-06T06:36:44.795Z,28.85
2019-04-06T06:39:14.678Z,28.90
2019-04-06T06:41:44.341Z,30.90
2019-04-06T06:44:16.512Z,27.25
2019-04-06T06:46:47.362Z,29.92
2019-04-06T06:49:18.690Z,30.05
2019-04-06T06:51:48.273Z,30.23
2019-04-06T06:54:17.733Z,29.23
2019-04-06T06:56:47.135Z,27.62
2019-04-06T06:59:16.718Z,30.25
2019-04-06T07:01:46.117Z,29.42
2019-04-06T07:04:18.908Z,27.75
2019-04-06T07:06:48.351Z,29.23
2019-04-06T07:09:17.874Z,29.90
2019-04-06T07:11:49.529Z,29.00
2019-04-06T07:14:19.022Z,28.30
2019-04-06T07:16:48.792Z,29.95
2019-04-06T07:19:18.611Z,30.10
2019-04-06T07:21:47.974Z,31.23
2019-04-06T07:24:17.391Z,30.08
2019-04-06T07:26:48.294Z,29.15
2019-04-06T07:29:17.760Z,30.90
2019-04-06T07:31:47.130Z,30.88
2019-04-06T07:34:21.729Z,30.65
2019-04-06T07:36:52.892Z,30.50
2019-04-06T07:39:22.326Z,28.75
2019-04-06T07:41:51.632Z,29.27
2019-04-06T07:44:21.092Z,30.80
2019-04-06T07:46:50.616Z,31.85
2019-04-06T07:49:20.228Z,31.10
2019-04-06T07:51:49.662Z,28.80
2019-04-06T07:54:19.101Z,32.20
2019-04-06T07:56:48.388Z,30.08
2019-04-06T07:59:17.694Z,28.98
2019-04-06T08:01:48.359Z,30.27
2019-04-06T08:04:18.259Z,29.72
2019-04-06T08:06:47.547Z,30.00
2019-04-06T08:09:17.175Z,30.50
2019-04-06T08:11:46.460Z,29.42
2019-04-06T08:14:15.974Z,28.23
2019-04-06T08:16:45.338Z,27.00
2019-04-06T08:19:14.871Z,27.90
2019-04-06T08:21:44.470Z,27.60
2019-04-06T08:24:13.977Z,25.77
2019-04-06T08:26:43.327Z,25.48
2019-04-06T08:29:12.644Z,26.25
2019-04-06T08:31:41.950Z,27.30
2019-04-06T08:34:13.453Z,25.48
2019-04-06T08:36:42.552Z,22.50
2019-04-06T08:39:12.168Z,23.75
2019-04-06T08:41:41.468Z,25.52
2019-04-06T08:44:10.780Z,24.80
2019-04-06T08:46:40.193Z,27.73
2019-04-06T08:49:09.543Z,27.67
2019-04-06T08:51:38.835Z,25.02
2019-04-06T08:54:08.144Z,27.73
2019-04-06T08:56:37.707Z,26.15
2019-04-06T08:59:11.974Z,25.70
2019-04-06T09:01:38.019Z,26.23
2019-04-06T09:04:07.327Z,26.65
2019-04-06T09:06:36.623Z,29.55
2019-04-06T09:09:07.728Z,28.57
2019-04-06T09:11:37.050Z,28.52
2019-04-06T09:14:06.363Z,26.50
2019-04-06T09:16:35.927Z,26.97
2019-04-06T09:19:05.316Z,27.50
2019-04-06T09:21:34.879Z,30.55
2019-04-06T09:24:04.172Z,27.73
2019-04-06T09:26:33.528Z,26.62
2019-04-06T09:29:02.986Z,26.68
2019-04-06T09:31:32.514Z,27.02
2019-04-06T09:34:01.807Z,25.10
2019-04-06T09:36:31.110Z,26.50
2019-04-06T09:39:00.549Z,26.25
2019-04-06T09:41:30.464Z,25.10
2019-04-06T09:43:59.779Z,23.77
2019-04-06T09:46:40.024Z,27.35
2019-04-06T09:49:26.098Z,26.02
2019-04-06T09:52:13.345Z,25.30
2019-04-06T09:54:44.516Z,27.62
2019-04-06T09:57:18.443Z,25.30
2019-04-06T09:59:49.739Z,26.07
2019-04-06T10:02:20.687Z,25.08
2019-04-06T10:04:51.635Z,24.10
2019-04-06T10:07:22.826Z,24.87
2019-04-06T10:10:10.411Z,26.73
2019-04-06T10:12:41.345Z,26.55
2019-04-06T10:15:15.343Z,25.60
2019-04-06T10:17:49.223Z,26.60
2019-04-06T10:20:38.631Z,23.62
2019-04-06T10:23:16.068Z,23.92
2019-04-06T10:25:53.008Z,26.33
2019-04-06T10:28:40.314Z,25.20
2019-04-06T10:31:23.872Z,26.02
2019-04-06T10:34:04.302Z,23.07
2019-04-06T10:36:44.067Z,26.30
2019-04-06T10:39:17.896Z,24.40
2019-04-06T10:42:05.363Z,23.40
2019-04-06T10:44:36.491Z,23.30
2019-04-06T10:47:07.656Z,25.97
2019-04-06T10:49:54.859Z,23.57
2019-04-06T10:52:25.793Z,25.10
2019-04-06T10:54:56.828Z,23.32
2019-04-06T10:57:37.035Z,23.62
2019-04-06T11:00:14.284Z,24.92
2019-04-06T11:02:48.432Z,25.57
2019-04-06T11:05:19.631Z,25.75
2019-04-06T11:07:50.588Z,23.90
2019-04-06T11:10:36.591Z,24.25
2019-04-06T11:13:13.780Z,24.57
2019-04-06T11:16:01.211Z,26.10
2019-04-06T11:18:35.255Z,25.17
2019-04-06T11:21:09.265Z,25.82
2019-04-06T11:23:40.292Z,23.70
2019-04-06T11:26:29.680Z,26.45
2019-04-06T11:29:06.899Z,24.02
2019-04-06T11:31:54.655Z,25.45
2019-04-06T11:34:43.743Z,26.02
2019-04-06T11:37:17.844Z,24.63
2019-04-06T11:39:57.523Z,25.08
2019-04-06T11:42:28.461Z,26.30
2019-04-06T11:45:11.650Z,26.37
2019-04-06T11:47:42.918Z,24.00
2019-04-06T11:50:16.932Z,25.90
2019-04-06T11:52:50.946Z,24.95
2019-04-06T11:55:25.030Z,25.45
2019-04-06T11:57:56.287Z,25.43
2019-04-06T12:00:36.167Z,25.23
2019-04-06T12:03:07.099Z,25.82
2019-04-06T12:05:56.651Z,23.38
2019-04-06T12:08:43.886Z,27.15
2019-04-06T12:11:15.398Z,23.70
2019-04-06T12:14:04.410Z,24.32
2019-04-06T12:16:52.139Z,23.98
2019-04-06T12:19:34.833Z,26.80
2019-04-06T12:22:18.479Z,24.60
2019-04-06T12:24:50.232Z,24.30
2019-04-06T12:27:27.527Z,26.25
2019-04-06T12:29:58.440Z,25.77
2019-04-06T12:32:29.367Z,23.50
2019-04-06T12:35:03.067Z,22.55
2019-04-06T12:37:50.793Z,22.50
2019-04-06T12:40:24.432Z,21.30
2019-04-06T12:43:10.551Z,20.62
2019-04-06T12:45:53.008Z,14.40
2019-04-06T12:48:26.908Z,15.28
2019-04-06T12:50:57.977Z,17.65
2019-04-06T12:53:31.772Z,13.25
2019-04-06T12:56:09.272Z,14.45
2019-04-06T12:58:52.263Z,13.80
2019-04-06T13:01:23.211Z,14.10
2019-04-06T13:03:54.175Z,14.13
2019-04-06T13:06:43.112Z,15.05
2019-04-06T13:09:20.040Z,16.65
2019-04-06T13:11:53.818Z,14.35
2019-04-06T13:14:25.064Z,14.15
2019-04-06T13:17:14.292Z,14.15
2019-04-06T13:19:45.266Z,15.23
2019-04-06T13:22:28.208Z,14.20
2019-04-06T13:25:08.486Z,14.55
2019-04-06T13:27:49.369Z,13.18
2019-04-06T13:30:26.615Z,14.78
2019-04-06T13:32:58.162Z,14.28
2019-04-06T13:35:44.915Z,12.68
2019-04-06T13:38:18.820Z,14.98
2019-04-06T13:40:58.717Z,12.80
2019-04-06T13:43:29.769Z,14.13
2019-04-06T13:46:17.043Z,13.10
2019-04-06T13:48:56.836Z,15.38
2019-04-06T13:51:27.787Z,15.55
2019-04-06T13:54:10.916Z,15.00
2019-04-06T13:56:41.867Z,13.80
2019-04-06T13:59:19.126Z,14.70
2019-04-06T14:01:53.076Z,14.35
2019-04-06T14:04:24.008Z,13.68
2019-04-06T14:07:00.649Z,13.50
2019-04-06T14:09:31.586Z,14.50
2019-04-06T14:12:02.532Z,14.85
2019-04-06T14:14:51.833Z,15.35
2019-04-06T14:17:39.287Z,14.58
2019-04-06T14:20:10.451Z,16.67
2019-04-06T14:22:49.010Z,15.13
2019-04-06T14:25:23.698Z,16.80
2019-04-06T14:27:54.651Z,15.43
2019-04-06T14:30:25.722Z,16.05
2019-04-06T14:32:59.749Z,16.45
2019-04-06T14:35:45.711Z,14.33
2019-04-06T14:38:22.701Z,15.95
2019-04-06T14:40:56.848Z,16.20
2019-04-06T14:43:30.449Z,17.30
2019-04-06T14:46:18.606Z,18.50
2019-04-06T14:48:52.419Z,16.10
2019-04-06T14:51:26.239Z,15.78
2019-04-06T14:54:00.094Z,16.52
2019-04-06T14:56:34.022Z,17.87
2019-04-06T14:59:20.155Z,16.73
2019-04-06T15:02:06.288Z,16.55
2019-04-06T15:04:43.459Z,15.60
2019-04-06T15:07:14.780Z,15.25
2019-04-06T15:09:51.832Z,16.52
2019-04-06T15:12:25.667Z,16.10
2019-04-06T15:15:05.338Z,15.30
2019-04-06T15:17:48.487Z,16.95
2019-04-06T15:20:22.756Z,13.18
2019-04-06T15:23:12.411Z,14.18
2019-04-06T15:25:59.623Z,14.68
2019-04-06T15:28:39.781Z,15.48
2019-04-06T15:31:13.615Z,14.60
2019-04-06T15:33:44.865Z,17.02
2019-04-06T15:36:16.205Z,14.80
2019-04-06T15:38:47.428Z,14.43
2019-04-06T15:41:33.339Z,13.05
2019-04-06T15:44:20.903Z,14.50
2019-04-06T15:46:58.159Z,14.50
2019-04-06T15:49:46.132Z,14.00
2019-04-06T15:52:19.794Z,14.63
2019-04-06T15:54:53.447Z,15.17
2019-04-06T15:57:24.526Z,14.85
2019-04-06T15:59:55.503Z,17.32
2019-04-06T16:02:29.704Z,14.15
2019-04-06T16:05:04.027Z,14.93
2019-04-06T16:07:37.702Z,13.98
2019-04-06T16:10:25.013Z,14.65
2019-04-06T16:12:55.955Z,15.48
2019-04-06T16:15:27.153Z,14.30
2019-04-06T16:18:13.843Z,13.83
2019-04-06T16:20:58.434Z,14.20
2019-04-06T16:23:32.419Z,14.73
2019-04-06T16:26:03.359Z,14.43
2019-04-06T16:28:46.091Z,14.00
2019-04-06T16:31:19.703Z,14.00
2019-04-06T16:33:56.669Z,13.22
2019-04-06T16:36:43.147Z,13.88
2019-04-06T16:39:29.653Z,13.93
2019-04-06T16:42:00.926Z,13.62
2019-04-06T16:44:40.947Z,15.72
2019-04-06T16:47:28.308Z,14.68
2019-04-06T16:49:59.256Z,12.93
2019-04-06T16:52:39.368Z,13.32
2019-04-06T16:55:28.542Z,14.28
2019-04-06T16:58:16.030Z,15.05
2019-04-06T17:00:47.310Z,14.05
2019-04-06T17:03:24.975Z,13.60
2019-04-06T17:05:55.939Z,14.00
2019-04-06T17:08:39.011Z,13.48
2019-04-06T17:11:19.832Z,13.28
2019-04-06T17:13:53.778Z,13.10
2019-04-06T17:16:31.245Z,12.15
2019-04-06T17:19:02.310Z,12.73
2019-04-06T17:21:48.403Z,13.55
2019-04-06T17:24:36.272Z,11.00
2019-04-06T17:27:19.378Z,12.40
2019-04-06T17:30:08.311Z,11.10
2019-04-06T17:32:39.259Z,11.15
2019-04-06T17:35:10.469Z,11.73
2019-04-06T17:37:44.183Z,10.72
2019-04-06T17:40:24.010Z,11.90
2019-04-06T17:42:58.192Z,15.13
2019-04-06T17:45:44.387Z,13.95
2019-04-06T17:48:31.792Z,12.28
2019-04-06T17:51:02.713Z,13.40
2019-04-06T17:53:33.743Z,12.18
2019-04-06T17:56:20.934Z,12.40
2019-04-06T17:58:54.668Z,11.08
2019-04-06T18:01:28.522Z,10.93
2019-04-06T18:03:59.940Z,10.00
2019-04-06T18:06:36.852Z,9.80
2019-04-06T18:09:09.848Z,10.98
2019-04-06T18:11:52.922Z,11.10
2019-04-06T18:14:22.643Z,11.15
2019-04-06T18:16:51.948Z,11.12
2019-04-06T18:19:21.552Z,10.68
2019-04-06T18:21:51.635Z,10.28
2019-04-06T18:24:21.418Z,11.28
2019-04-06T18:26:51.233Z,9.70
2019-04-06T18:29:20.615Z,10.43
2019-04-06T18:32:08.377Z,9.58
2019-04-06T18:34:37.743Z,10.15
2019-04-06T18:37:21.378Z,11.25
2019-04-06T18:39:52.628Z,11.38
2019-04-06T18:42:21.915Z,11.18
2019-04-06T18:44:51.203Z,10.13
2019-04-06T18:47:20.929Z,10.65
2019-04-06T18:49:50.288Z,9.90
2019-04-06T18:52:19.993Z,9.43
2019-04-06T18:54:49.560Z,10.93
2019-04-06T18:57:18.851Z,10.70
2019-04-06T18:59:48.183Z,10.25
2019-04-06T19:02:17.531Z,9.98
2019-04-06T19:04:46.887Z,10.48
2019-04-06T19:07:16.408Z,9.78
2019-04-06T19:09:46.374Z,10.72
2019-04-06T19:12:15.732Z,10.30
2019-04-06T19:14:45.191Z,11.45
2019-04-06T19:17:14.476Z,11.65
2019-04-06T19:19:43.787Z,12.05
2019-04-06T19:22:13.538Z,11.85
2019-04-06T19:24:42.995Z,13.43
2019-04-06T19:27:12.537Z,13.98
2019-04-06T19:29:42.081Z,14.03
2019-04-06T19:32:11.824Z,14.70
2019-04-06T19:34:41.577Z,15.68
2019-04-06T19:37:11.186Z,15.78
2019-04-06T19:39:41.047Z,15.08
2019-04-06T19:42:10.392Z,14.30
2019-04-06T19:44:39.748Z,14.83
2019-04-06T19:47:09.165Z,16.15
2019-04-06T19:49:38.890Z,15.38
2019-04-06T19:52:08.440Z,15.88
2019-04-06T19:54:37.733Z,15.93
2019-04-06T19:57:07.081Z,15.88
2019-04-06T19:59:37.240Z,16.77
2019-04-06T20:02:06.598Z,16.70
2019-04-06T20:04:36.389Z,16.10
2019-04-06T20:07:05.900Z,15.68
2019-04-06T20:09:35.786Z,14.75
2019-04-06T20:12:07.717Z,17.48
2019-04-06T20:14:36.378Z,16.70
2019-04-06T20:17:06.852Z,14.38
2019-04-06T20:19:36.376Z,16.20
2019-04-06T20:22:05.708Z,15.85
2019-04-06T20:24:35.227Z,17.60
2019-04-06T20:27:04.646Z,17.77
2019-04-06T20:29:34.158Z,17.90
2019-04-06T20:32:03.543Z,17.87
2019-04-06T20:34:33.322Z,16.52
2019-04-06T20:37:04.019Z,17.05
2019-04-06T20:39:33.758Z,18.00
2019-04-06T20:42:03.999Z,17.20
2019-04-06T20:44:33.281Z,18.40
2019-04-06T20:47:02.591Z,16.60
2019-04-06T20:49:32.015Z,17.40
2019-04-06T20:52:01.873Z,18.37
2019-04-06T20:54:31.908Z,19.75
2019-04-06T20:57:01.658Z,17.40
2019-04-06T20:59:31.608Z,18.60
2019-04-06T21:02:01.268Z,17.00
2019-04-06T21:04:30.683Z,19.73
2019-04-06T21:06:59.992Z,17.80
2019-04-06T21:09:29.364Z,18.48
2019-04-06T21:11:58.667Z,17.90
2019-04-06T21:14:28.307Z,17.98
2019-04-06T21:16:57.759Z,19.62
2019-04-06T21:19:27.121Z,18.35
2019-04-06T21:21:58.702Z,17.40
2019-04-06T21:24:27.441Z,18.20
2019-04-06T21:26:57.103Z,17.25
2019-04-06T21:29:26.934Z,18.37
2019-04-06T21:31:56.484Z,18.05
2019-04-06T21:34:26.102Z,18.07
2019-04-06T21:36:55.621Z,19.23
2019-04-06T21:39:24.923Z,19.62
2019-04-06T21:41:54.280Z,18.40
2019-04-06T21:44:23.608Z,18.70
2019-04-06T21:46:52.903Z,17.45
2019-04-06T21:49:22.212Z,16.57
2019-04-06T21:51:51.583Z,17.92
2019-04-06T21:54:20.903Z,15.18
2019-04-06T21:56:50.511Z,18.57
2019-04-06T21:59:19.807Z,17.75
2019-04-06T22:01:49.187Z,17.60
2019-04-06T22:04:25.370Z,17.82
2019-04-06T22:06:49.492Z,16.77
2019-04-06T22:09:18.961Z,17.70
2019-04-06T22:11:48.268Z,18.00
2019-04-06T22:14:17.728Z,18.45
2019-04-06T22:16:47.484Z,17.15
2019-04-06T22:19:16.997Z,18.95
2019-04-06T22:21:46.362Z,19.00
2019-04-06T22:24:15.873Z,20.00
2019-04-06T22:26:45.913Z,18.55
2019-04-06T22:29:15.331Z,18.40
2019-04-06T22:31:44.880Z,18.35
2019-04-06T22:34:14.335Z,19.82
2019-04-06T22:36:43.641Z,18.95
2019-04-06T22:39:13.675Z,19.07
2019-04-06T22:41:43.347Z,19.42
2019-04-06T22:44:13.121Z,19.42
2019-04-06T22:46:43.019Z,19.42
2019-04-06T22:49:12.378Z,18.27
2019-04-06T22:51:42.208Z,18.92
2019-04-06T22:54:11.660Z,18.50
2019-04-06T22:56:40.923Z,19.32
2019-04-06T22:59:11.219Z,20.65
2019-04-06T23:01:41.804Z,18.67
2019-04-06T23:04:13.258Z,17.77
2019-04-06T23:06:44.781Z,18.15
2019-04-06T23:09:14.330Z,19.30
2019-04-06T23:11:44.753Z,20.30
2019-04-06T23:14:14.207Z,19.90
2019-04-06T23:16:43.758Z,20.85
2019-04-06T23:19:13.407Z,20.35
2019-04-06T23:21:42.927Z,21.10
2019-04-06T23:24:12.290Z,20.80
2019-04-06T23:26:41.944Z,20.95
2019-04-06T23:29:11.271Z,20.20
2019-04-06T23:31:40.579Z,20.82
2019-04-06T23:34:10.175Z,20.75
2019-04-06T23:36:39.623Z,20.88
2019-04-06T23:39:09.313Z,19.87
2019-04-06T23:41:39.085Z,21.30
2019-04-06T23:44:08.885Z,20.52
2019-04-06T23:46:38.402Z,21.02
2019-04-06T23:49:07.988Z,21.68
2019-04-06T23:51:37.300Z,19.60
2019-04-06T23:54:07.051Z,20.32
2019-04-06T23:56:36.790Z,20.88
2019-04-06T23:59:06.242Z,20.37
